createdAt,value
2023-04-16T00:00:11.412Z,9.00
2023-04-16T00:02:39.541Z,9.00
2023-04-16T00:05:08.133Z,9.00
2023-04-16T00:07:36.092Z,9.00
2023-04-16T00:10:04.117Z,9.00
2023-04-16T00:12:32.140Z,9.00
2023-04-16T00:15:01.465Z,9.00
2023-04-16T00:17:29.469Z,9.00
2023-04-16T00:19:57.452Z,9.10
2023-04-16T00:22:25.412Z,9.10
2023-04-16T00:24:53.364Z,9.10
2023-04-16T00:27:21.391Z,9.10
2023-04-16T00:29:49.359Z,9.00
2023-04-16T00:32:18.914Z,9.00
2023-04-16T00:34:46.870Z,9.00
2023-04-16T00:37:14.840Z,8.90
2023-04-16T00:39:42.803Z,8.90
2023-04-16T00:42:11.340Z,9.00
2023-04-16T00:44:39.296Z,8.90
2023-04-16T00:47:08.179Z,8.90
2023-04-16T00:49:37.696Z,9.00
2023-04-16T00:52:05.921Z,9.00
2023-04-16T00:54:34.374Z,9.00
2023-04-16T00:57:02.702Z,9.00
2023-04-16T00:59:30.664Z,9.10
2023-04-16T01:01:58.768Z,9.10
2023-04-16T01:04:27.289Z,9.00
2023-04-16T01:06:57.161Z,9.00
2023-04-16T01:09:25.111Z,9.00
2023-04-16T01:11:53.112Z,9.00
2023-04-16T01:14:21.044Z,9.00
2023-04-16T01:16:49.054Z,9.00
2023-04-16T01:19:17.026Z,9.00
2023-04-16T01:21:46.734Z,9.00
2023-04-16T01:24:14.686Z,8.90
2023-04-16T01:26:42.683Z,8.90
2023-04-16T01:29:10.976Z,9.00
2023-04-16T01:31:39.177Z,9.00
2023-04-16T01:34:07.182Z,9.00
2023-04-16T01:36:35.245Z,9.00
2023-04-16T01:39:04.985Z,9.00
2023-04-16T01:41:33.032Z,9.00
2023-04-16T01:44:00.992Z,9.10
2023-04-16T01:46:30.067Z,9.00
2023-04-16T01:48:58.462Z,9.00
2023-04-16T01:51:27.297Z,9.10
2023-04-16T01:53:55.988Z,9.10
2023-04-16T01:56:25.428Z,9.00
2023-04-16T01:58:53.765Z,9.10
2023-04-16T02:01:21.956Z,9.10
2023-04-16T02:03:50.233Z,9.10
2023-04-16T02:06:18.215Z,9.10
2023-04-16T02:08:46.165Z,9.10
2023-04-16T02:11:14.121Z,9.10
2023-04-16T02:13:43.452Z,9.10
2023-04-16T02:16:11.553Z,9.10
2023-04-16T02:18:39.621Z,9.10
2023-04-16T02:21:07.879Z,9.10
2023-04-16T02:23:35.932Z,9.10
2023-04-16T02:26:04.733Z,9.10
2023-04-16T02:28:32.703Z,9.10
2023-04-16T02:31:02.084Z,9.10
2023-04-16T02:33:31.939Z,9.10
2023-04-16T02:36:00.381Z,9.10
2023-04-16T02:38:28.348Z,9.10
2023-04-16T02:40:56.334Z,9.20
2023-04-16T02:43:24.308Z,9.20
2023-04-16T02:45:52.270Z,9.20
2023-04-16T02:48:21.632Z,9.20
2023-04-16T02:50:49.573Z,9.20
2023-04-16T02:53:17.534Z,9.20
2023-04-16T02:55:52.486Z,9.20
2023-04-16T02:58:20.543Z,9.10
2023-04-16T03:00:49.071Z,9.10
2023-04-16T03:03:17.110Z,9.10
2023-04-16T03:05:46.535Z,9.10
2023-04-16T03:08:14.556Z,9.10
2023-04-16T03:10:42.591Z,9.10
2023-04-16T03:13:10.569Z,9.20
2023-04-16T03:15:38.611Z,9.20
2023-04-16T03:18:07.031Z,9.20
2023-04-16T03:20:34.982Z,9.20
2023-04-16T03:23:04.334Z,9.20
2023-04-16T03:25:32.260Z,9.30
2023-04-16T03:28:00.216Z,9.30
2023-04-16T03:30:28.152Z,9.20
2023-04-16T03:32:56.289Z,9.20
2023-04-16T03:35:24.274Z,9.20
2023-04-16T03:37:52.219Z,9.20
2023-04-16T03:40:21.594Z,9.20
2023-04-16T03:42:49.558Z,9.20
2023-04-16T03:45:17.712Z,9.20
2023-04-16T03:47:48.588Z,9.10
2023-04-16T03:50:16.687Z,9.10
2023-04-16T03:52:44.856Z,9.10
2023-04-16T03:55:12.786Z,9.10
2023-04-16T03:57:42.500Z,9.10
2023-04-16T04:00:11.121Z,9.10
2023-04-16T04:02:39.346Z,9.10
2023-04-16T04:05:07.844Z,9.00
2023-04-16T04:07:35.851Z,9.10
2023-04-16T04:10:03.994Z,9.10
2023-04-16T04:12:32.739Z,9.10
2023-04-16T04:15:02.072Z,9.10
2023-04-16T04:17:30.125Z,9.10
2023-04-16T04:20:01.288Z,9.10
2023-04-16T04:22:29.806Z,9.00
2023-04-16T04:24:57.868Z,9.00
2023-04-16T04:27:26.192Z,9.00
2023-04-16T04:29:54.793Z,9.00
2023-04-16T04:32:24.305Z,9.10
2023-04-16T04:34:52.273Z,9.10
2023-04-16T04:37:20.256Z,9.10
2023-04-16T04:39:48.208Z,9.10
2023-04-16T04:42:18.114Z,9.00
2023-04-16T04:44:46.681Z,9.00
2023-04-16T04:47:14.988Z,9.00
2023-04-16T04:49:44.307Z,9.00
2023-04-16T04:52:12.592Z,8.90
2023-04-16T04:54:41.675Z,8.90
2023-04-16T04:57:09.769Z,8.90
2023-04-16T04:59:37.731Z,9.00
2023-04-16T05:02:05.829Z,8.90
2023-04-16T05:04:33.878Z,8.90
2023-04-16T05:07:03.473Z,9.00
2023-04-16T05:09:31.680Z,9.00
2023-04-16T05:11:59.894Z,9.00
2023-04-16T05:14:27.845Z,9.00
2023-04-16T05:16:56.408Z,9.00
2023-04-16T05:19:25.571Z,9.00
2023-04-16T05:21:53.548Z,9.00
2023-04-16T05:24:23.372Z,9.00
2023-04-16T05:26:51.376Z,9.00
2023-04-16T05:29:19.387Z,9.10
2023-04-16T05:31:47.376Z,9.00
2023-04-16T05:34:15.489Z,9.00
2023-04-16T05:36:43.932Z,9.10
2023-04-16T05:39:12.065Z,9.10
2023-04-16T05:41:41.436Z,9.10
2023-04-16T05:44:09.443Z,9.10
2023-04-16T05:46:37.441Z,9.10
2023-04-16T05:49:05.446Z,9.20
2023-04-16T05:51:33.514Z,9.20
2023-04-16T05:54:01.476Z,9.10
2023-04-16T05:56:29.415Z,9.10
2023-04-16T05:58:58.765Z,9.20
2023-04-16T06:01:26.780Z,9.20
2023-04-16T06:03:54.863Z,9.20
2023-04-16T06:06:22.894Z,9.20
2023-04-16T06:08:50.857Z,9.20
2023-04-16T06:11:18.832Z,9.20
2023-04-16T06:13:46.794Z,9.20
2023-04-16T06:16:16.240Z,9.20
2023-04-16T06:18:44.257Z,9.30
2023-04-16T06:21:12.240Z,9.30
2023-04-16T06:23:40.306Z,9.30
2023-04-16T06:26:08.303Z,9.30
2023-04-16T06:28:36.258Z,9.40
2023-04-16T06:31:04.333Z,9.40
2023-04-16T06:33:33.742Z,9.50
2023-04-16T06:36:01.680Z,9.50
2023-04-16T06:38:29.666Z,9.50
2023-04-16T06:40:58.417Z,9.60
2023-04-16T06:43:27.030Z,9.60
2023-04-16T06:45:55.003Z,9.60
2023-04-16T06:48:22.963Z,9.60
2023-04-16T06:50:52.375Z,9.70
2023-04-16T06:53:20.402Z,9.80
2023-04-16T06:55:48.332Z,9.70
2023-04-16T06:58:16.402Z,9.70
2023-04-16T07:00:44.428Z,9.70
2023-04-16T07:03:12.674Z,9.70
2023-04-16T07:05:40.688Z,9.60
2023-04-16T07:08:10.576Z,9.70
2023-04-16T07:10:39.281Z,9.70
2023-04-16T07:13:07.270Z,9.90
2023-04-16T07:15:35.252Z,9.90
2023-04-16T07:18:03.322Z,9.90
2023-04-16T07:20:31.391Z,9.90
2023-04-16T07:23:00.393Z,9.80
2023-04-16T07:25:29.820Z,9.70
2023-04-16T07:27:57.827Z,9.80
2023-04-16T07:30:25.981Z,9.90
2023-04-16T07:32:55.822Z,9.90
2023-04-16T07:35:24.070Z,9.90
2023-04-16T07:37:52.140Z,9.80
2023-04-16T07:40:20.151Z,9.80
2023-04-16T07:42:49.639Z,9.90
2023-04-16T07:45:18.231Z,9.90
2023-04-16T07:47:46.662Z,10.00
2023-04-16T07:50:16.508Z,9.90
2023-04-16T07:52:45.398Z,10.00
2023-04-16T07:55:13.382Z,9.90
2023-04-16T07:57:42.007Z,10.00
2023-04-16T08:00:12.475Z,9.90
2023-04-16T08:02:40.618Z,9.80
2023-04-16T08:05:09.145Z,9.80
2023-04-16T08:07:37.137Z,9.80
2023-04-16T08:10:05.391Z,9.90
2023-04-16T08:12:33.490Z,9.90
2023-04-16T08:15:01.461Z,9.90
2023-04-16T08:17:30.861Z,10.00
2023-04-16T08:19:58.855Z,10.00
2023-04-16T08:22:27.359Z,10.00
2023-04-16T08:24:55.318Z,10.10
2023-04-16T08:27:23.256Z,10.10
2023-04-16T08:29:51.223Z,10.20
2023-04-16T08:32:19.264Z,10.10
2023-04-16T08:34:48.658Z,10.10
2023-04-16T08:37:16.618Z,10.20
2023-04-16T08:39:44.622Z,10.30
2023-04-16T08:42:17.367Z,10.20
2023-04-16T08:44:49.540Z,10.20
2023-04-16T08:47:17.984Z,10.20
2023-04-16T08:49:46.805Z,10.20
2023-04-16T08:52:20.853Z,10.30
2023-04-16T08:54:58.334Z,10.30
2023-04-16T08:57:31.601Z,10.10
2023-04-16T09:00:01.094Z,10.10
2023-04-16T09:02:29.684Z,10.20
2023-04-16T09:05:00.803Z,10.20
2023-04-16T09:07:30.801Z,10.20
2023-04-16T09:10:00.605Z,10.10
2023-04-16T09:12:28.778Z,10.10
2023-04-16T09:14:59.685Z,10.20
2023-04-16T09:17:28.279Z,10.00
2023-04-16T09:19:56.398Z,10.00
2023-04-16T09:22:24.400Z,10.00
2023-04-16T09:24:53.757Z,10.00
2023-04-16T09:27:23.742Z,9.90
2023-04-16T09:29:53.509Z,9.80
2023-04-16T09:32:27.667Z,9.80
2023-04-16T09:34:58.284Z,9.80
2023-04-16T09:37:27.341Z,9.70
2023-04-16T09:39:58.594Z,9.70
2023-04-16T09:42:28.942Z,9.80
2023-04-16T09:45:00.039Z,9.70
2023-04-16T09:47:41.074Z,9.70
2023-04-16T09:50:12.474Z,9.70
2023-04-16T09:52:41.329Z,9.70
2023-04-16T09:55:10.828Z,9.70
2023-04-16T09:57:39.431Z,9.60
2023-04-16T10:00:09.313Z,9.70
2023-04-16T10:02:42.023Z,9.60
2023-04-16T10:05:11.019Z,9.70
2023-04-16T10:07:39.147Z,9.80
2023-04-16T10:10:08.282Z,10.00
2023-04-16T10:12:37.595Z,10.10
2023-04-16T10:15:06.577Z,10.20
2023-04-16T10:17:34.981Z,10.20
2023-04-16T10:20:04.136Z,10.20
2023-04-16T10:22:32.415Z,10.30
2023-04-16T10:25:00.560Z,10.30
2023-04-16T10:27:29.142Z,10.30
2023-04-16T10:29:58.784Z,10.50
2023-04-16T10:32:28.685Z,10.50
2023-04-16T10:34:57.038Z,10.60
2023-04-16T10:37:31.223Z,10.60
2023-04-16T10:39:59.845Z,10.60
2023-04-16T10:42:28.073Z,10.60
2023-04-16T10:44:56.045Z,10.50
2023-04-16T10:47:27.201Z,10.50
2023-04-16T10:49:55.191Z,10.50
2023-04-16T10:52:25.059Z,10.40
2023-04-16T10:57:23.625Z,10.40
2023-04-16T10:59:51.741Z,10.40
2023-04-16T11:02:20.392Z,10.60
2023-04-16T11:04:50.722Z,10.50
2023-04-16T11:07:20.975Z,10.60
2023-04-16T11:10:00.477Z,10.60
2023-04-16T11:12:34.238Z,10.60
2023-04-16T11:15:03.564Z,10.70
2023-04-16T11:17:35.518Z,10.70
2023-04-16T11:20:19.072Z,10.80
2023-04-16T11:22:49.030Z,10.80
2023-04-16T11:25:21.153Z,10.90
2023-04-16T11:27:49.220Z,11.00
2023-04-16T11:30:17.964Z,11.20
2023-04-16T11:32:46.324Z,11.40
2023-04-16T11:35:18.640Z,11.50
2023-04-16T11:37:48.409Z,11.60
2023-04-16T11:40:16.504Z,11.60
2023-04-16T11:42:44.982Z,11.70
2023-04-16T11:45:13.983Z,11.70
2023-04-16T11:47:46.636Z,11.70
2023-04-16T11:50:24.461Z,11.80
2023-04-16T11:52:54.173Z,11.80
2023-04-16T11:55:22.734Z,11.80
2023-04-16T11:57:52.192Z,11.90
2023-04-16T12:00:24.905Z,12.00
2023-04-16T12:02:54.956Z,12.10
2023-04-16T12:05:35.134Z,12.20
2023-04-16T12:08:04.396Z,12.20
2023-04-16T12:10:35.105Z,12.30
2023-04-16T12:13:13.605Z,12.30
2023-04-16T12:15:48.977Z,12.20
2023-04-16T12:18:17.377Z,12.20
2023-04-16T12:20:47.522Z,12.20
2023-04-16T12:23:25.327Z,12.10
2023-04-16T12:25:53.441Z,12.00
2023-04-16T12:28:32.803Z,11.90
2023-04-16T12:31:01.129Z,11.80
2023-04-16T12:33:29.164Z,11.70
2023-04-16T12:35:58.705Z,11.80
2023-04-16T12:38:27.262Z,11.80
2023-04-16T12:40:57.130Z,11.90
2023-04-16T12:43:25.861Z,11.80
2023-04-16T12:45:53.940Z,11.90
2023-04-16T12:48:21.911Z,11.90
2023-04-16T12:50:49.877Z,11.80
2023-04-16T12:53:19.225Z,11.70
2023-04-16T12:55:47.259Z,11.70
2023-04-16T12:58:15.411Z,11.80
2023-04-16T13:00:43.482Z,11.80
2023-04-16T13:03:11.653Z,11.80
2023-04-16T13:05:39.746Z,11.70
2023-04-16T13:08:08.222Z,11.60
2023-04-16T13:10:38.129Z,11.60
2023-04-16T13:13:06.776Z,11.70
2023-04-16T13:15:34.773Z,11.60
2023-04-16T13:18:02.817Z,11.50
2023-04-16T13:20:30.917Z,11.50
2023-04-16T13:22:58.924Z,11.50
2023-04-16T13:25:26.966Z,11.40
2023-04-16T13:27:56.301Z,11.40
2023-04-16T13:30:25.424Z,11.40
2023-04-16T13:32:53.481Z,11.40
2023-04-16T13:35:21.478Z,11.40
2023-04-16T13:37:49.473Z,11.40
2023-04-16T13:40:17.786Z,11.40
2023-04-16T13:42:45.762Z,11.40
2023-04-16T13:45:15.105Z,11.40
2023-04-16T13:47:43.870Z,11.30
2023-04-16T13:50:12.139Z,11.30
2023-04-16T13:52:40.119Z,11.30
2023-04-16T13:55:09.630Z,11.30
2023-04-16T13:57:37.784Z,11.30
2023-04-16T14:00:07.141Z,11.30
2023-04-16T14:02:36.799Z,11.40
2023-04-16T14:05:06.910Z,11.30
2023-04-16T14:07:35.012Z,11.40
2023-04-16T14:10:03.591Z,11.40
2023-04-16T14:12:31.831Z,11.40
2023-04-16T14:14:59.845Z,11.40
2023-04-16T14:17:29.022Z,11.50
2023-04-16T14:19:58.672Z,11.60
2023-04-16T14:22:26.991Z,11.70
2023-04-16T14:24:55.055Z,11.90
2023-04-16T14:27:23.507Z,12.10
2023-04-16T14:29:52.306Z,12.10
2023-04-16T14:32:21.289Z,12.20
2023-04-16T14:34:49.306Z,12.10
2023-04-16T14:37:19.626Z,12.10
2023-04-16T14:39:47.621Z,12.00
2023-04-16T14:42:15.839Z,11.90
2023-04-16T14:44:44.074Z,11.80
2023-04-16T14:47:12.087Z,11.70
2023-04-16T14:49:40.123Z,11.60
2023-04-16T14:52:08.333Z,11.60
2023-04-16T14:54:37.813Z,11.50
2023-04-16T14:57:06.049Z,11.60
2023-04-16T14:59:34.078Z,11.60
2023-04-16T15:02:02.195Z,11.60
2023-04-16T15:04:31.522Z,11.60
2023-04-16T15:06:59.879Z,11.60
2023-04-16T15:09:28.040Z,11.50
2023-04-16T15:11:58.088Z,11.50
2023-04-16T15:14:26.399Z,11.50
2023-04-16T15:16:54.912Z,11.50
2023-04-16T15:19:23.097Z,11.40
2023-04-16T15:21:51.631Z,11.30
2023-04-16T15:24:19.659Z,11.30
2023-04-16T15:26:47.607Z,11.30
2023-04-16T15:29:17.146Z,11.30
2023-04-16T15:31:45.168Z,11.30
2023-04-16T15:34:13.475Z,11.30
2023-04-16T15:36:41.446Z,11.20
2023-04-16T15:39:09.869Z,11.10
2023-04-16T15:41:50.254Z,11.10
2023-04-16T15:44:26.755Z,11.20
2023-04-16T15:46:54.715Z,11.10
2023-04-16T15:49:22.684Z,11.10
2023-04-16T15:51:50.792Z,11.10
2023-04-16T15:54:19.257Z,11.10
2023-04-16T15:56:47.652Z,11.10
2023-04-16T15:59:15.637Z,11.10
2023-04-16T16:01:44.966Z,11.10
2023-04-16T16:04:13.049Z,11.10
2023-04-16T16:06:41.859Z,11.10
2023-04-16T16:09:10.355Z,11.10
2023-04-16T16:11:38.874Z,11.10
2023-04-16T16:14:06.841Z,11.10
2023-04-16T16:16:36.484Z,11.00
2023-04-16T16:19:05.975Z,11.00
2023-04-16T16:21:33.933Z,10.90
2023-04-16T16:24:01.954Z,10.80
2023-04-16T16:26:29.958Z,10.70
2023-04-16T16:28:58.112Z,10.70
2023-04-16T16:31:26.201Z,10.60
2023-04-16T16:33:54.260Z,10.60
2023-04-16T16:36:23.562Z,10.60
2023-04-16T16:38:51.639Z,10.50
2023-04-16T16:41:19.600Z,10.50
2023-04-16T16:43:47.573Z,10.50
2023-04-16T16:46:15.705Z,10.50
2023-04-16T16:48:43.711Z,10.40
2023-04-16T16:51:11.804Z,10.40
2023-04-16T16:53:41.149Z,10.50
2023-04-16T16:56:09.129Z,10.40
2023-04-16T16:58:37.101Z,10.50
2023-04-16T17:01:05.102Z,10.50
2023-04-16T17:03:33.216Z,10.40
2023-04-16T17:06:01.295Z,10.40
2023-04-16T17:08:29.311Z,10.40
2023-04-16T17:10:58.792Z,10.40
2023-04-16T17:13:26.750Z,10.40
2023-04-16T17:15:54.704Z,10.40
2023-04-16T17:18:22.673Z,10.40
2023-04-16T17:20:50.611Z,10.40
2023-04-16T17:23:19.077Z,10.40
2023-04-16T17:25:47.129Z,10.30
2023-04-16T17:28:16.471Z,10.30
2023-04-16T17:30:44.737Z,10.30
2023-04-16T17:33:12.716Z,10.30
2023-04-16T17:35:41.058Z,10.30
2023-04-16T17:38:09.052Z,10.30
2023-04-16T17:40:37.066Z,10.20
2023-04-16T17:43:05.051Z,10.20
2023-04-16T17:45:34.882Z,10.20
2023-04-16T17:48:03.237Z,10.20
2023-04-16T17:50:31.266Z,10.20
2023-04-16T17:53:03.738Z,10.10
2023-04-16T17:55:32.209Z,10.10
2023-04-16T17:58:02.568Z,10.10
2023-04-16T18:00:30.602Z,10.00
2023-04-16T18:03:00.167Z,10.10
2023-04-16T18:05:28.484Z,10.10
2023-04-16T18:07:56.691Z,10.10
2023-04-16T18:10:24.884Z,10.10
2023-04-16T18:12:52.843Z,10.00
2023-04-16T18:15:20.926Z,10.00
2023-04-16T18:17:48.900Z,10.00
2023-04-16T18:20:19.696Z,10.00
2023-04-16T18:22:47.639Z,10.00
2023-04-16T18:25:16.241Z,10.00
2023-04-16T18:27:44.813Z,10.00
2023-04-16T18:30:19.879Z,10.00
2023-04-16T18:33:11.532Z,10.00
2023-04-16T18:35:41.487Z,10.00
2023-04-16T18:38:09.458Z,10.00
2023-04-16T18:40:37.713Z,9.90
2023-04-16T18:43:05.743Z,10.00
2023-04-16T18:45:34.515Z,9.90
2023-04-16T18:48:04.150Z,10.00
2023-04-16T18:50:32.175Z,10.00
2023-04-16T18:53:01.472Z,10.00
2023-04-16T18:55:30.116Z,10.00
2023-04-16T18:57:58.064Z,10.00
2023-04-16T19:00:26.156Z,10.00
2023-04-16T19:02:54.343Z,10.00
2023-04-16T19:05:23.075Z,10.00
2023-04-16T19:07:51.090Z,10.00
2023-04-16T19:10:20.569Z,9.90
2023-04-16T19:12:48.847Z,9.90
2023-04-16T19:15:16.937Z,9.90
2023-04-16T19:17:44.907Z,9.90
2023-04-16T19:20:13.269Z,9.90
2023-04-16T19:22:41.206Z,9.90
2023-04-16T19:25:09.972Z,9.90
2023-04-16T19:27:39.844Z,9.90
2023-04-16T19:30:09.006Z,9.90
2023-04-16T19:32:36.960Z,9.80
2023-04-16T19:35:05.840Z,9.80
2023-04-16T19:37:33.776Z,9.80
2023-04-16T19:40:02.076Z,9.80
2023-04-16T19:42:30.098Z,9.80
2023-04-16T19:44:59.753Z,9.80
2023-04-16T19:47:27.722Z,9.80
2023-04-16T19:49:55.745Z,9.80
2023-04-16T19:52:23.943Z,9.80
2023-04-16T19:54:51.928Z,9.80
2023-04-16T19:57:19.863Z,9.80
2023-04-16T19:59:47.956Z,9.80
2023-04-16T20:02:17.639Z,9.80
2023-04-16T20:04:48.083Z,9.80
2023-04-16T20:07:16.081Z,9.70
2023-04-16T20:09:44.171Z,9.80
2023-04-16T20:12:12.625Z,9.80
2023-04-16T20:14:41.989Z,9.80
2023-04-16T20:17:10.309Z,9.80
2023-04-16T20:19:40.247Z,9.80
2023-04-16T20:22:09.327Z,9.80
2023-04-16T20:24:38.524Z,9.80
2023-04-16T20:27:06.783Z,9.80
2023-04-16T20:29:34.818Z,9.80
2023-04-16T20:32:02.833Z,9.80
2023-04-16T20:34:31.020Z,9.80
2023-04-16T20:37:00.642Z,9.80
2023-04-16T20:39:28.698Z,9.80
2023-04-16T20:41:57.559Z,9.80
2023-04-16T20:44:26.449Z,9.80
2023-04-16T20:46:54.923Z,9.70
2023-04-16T20:49:23.052Z,9.70
2023-04-16T20:51:51.007Z,9.80
2023-04-16T20:54:20.427Z,9.80
2023-04-16T20:56:50.307Z,9.80
2023-04-16T20:59:18.466Z,9.80
2023-04-16T21:01:47.566Z,9.80
2023-04-16T21:04:15.860Z,9.80
2023-04-16T21:06:44.083Z,9.80
2023-04-16T21:09:12.687Z,9.70
2023-04-16T21:11:43.503Z,9.80
2023-04-16T21:14:11.591Z,9.80
2023-04-16T21:16:39.738Z,9.70
2023-04-16T21:19:08.767Z,9.70
2023-04-16T21:21:38.229Z,9.80
2023-04-16T21:24:06.693Z,9.80
2023-04-16T21:26:34.651Z,9.70
2023-04-16T21:29:04.101Z,9.70
2023-04-16T21:31:32.128Z,9.70
2023-04-16T21:34:00.121Z,9.70
2023-04-16T21:36:29.222Z,9.70
2023-04-16T21:38:57.168Z,9.70
2023-04-16T21:41:25.239Z,9.70
2023-04-16T21:43:53.187Z,9.70
2023-04-16T21:46:22.711Z,9.70
2023-04-16T21:48:50.807Z,9.70
2023-04-16T21:51:20.082Z,9.70
2023-04-16T21:53:48.029Z,9.70
2023-04-16T21:56:16.002Z,9.70
2023-04-16T21:58:43.960Z,9.70
2023-04-16T22:01:12.029Z,9.80
2023-04-16T22:03:41.524Z,9.80
2023-04-16T22:06:09.812Z,9.80
2023-04-16T22:08:37.908Z,9.80
2023-04-16T22:11:05.935Z,9.90
2023-04-16T22:13:33.879Z,9.80
2023-04-16T22:16:02.414Z,9.80
2023-04-16T22:18:32.960Z,9.90
2023-04-16T22:21:02.877Z,9.80
2023-04-16T22:23:31.062Z,9.80
2023-04-16T22:25:58.988Z,9.80
2023-04-16T22:28:27.262Z,9.80
2023-04-16T22:30:55.209Z,9.80
2023-04-16T22:33:23.199Z,9.80
2023-04-16T22:35:51.125Z,9.80
2023-04-16T22:38:21.374Z,9.70
2023-04-16T22:40:49.702Z,9.70
2023-04-16T22:43:18.067Z,9.70
2023-04-16T22:45:47.192Z,9.70
2023-04-16T22:48:15.521Z,9.70
2023-04-16T22:50:48.355Z,9.70
2023-04-16T22:53:16.436Z,9.70
2023-04-16T22:55:45.838Z,9.70
2023-04-16T22:58:13.789Z,9.70
2023-04-16T23:00:41.802Z,9.70
2023-04-16T23:03:09.989Z,9.70
2023-04-16T23:05:38.031Z,9.70
2023-04-16T23:08:06.242Z,9.70
2023-04-16T23:10:34.213Z,9.70
2023-04-16T23:13:03.703Z,9.70
2023-04-16T23:15:31.694Z,9.70
2023-04-16T23:17:59.768Z,9.70
2023-04-16T23:20:27.729Z,9.70
2023-04-16T23:22:55.669Z,9.70
2023-04-16T23:25:23.631Z,9.70
2023-04-16T23:27:51.592Z,9.70
2023-04-16T23:30:21.053Z,9.60
2023-04-16T23:32:49.055Z,9.60
2023-04-16T23:35:22.746Z,9.60
2023-04-16T23:37:50.872Z,9.60
2023-04-16T23:40:19.068Z,9.60
2023-04-16T23:42:47.081Z,9.60
2023-04-16T23:45:15.062Z,9.60
2023-04-16T23:47:44.489Z,9.50
2023-04-16T23:50:12.855Z,9.60
2023-04-16T23:52:40.971Z,9.60
2023-04-16T23:55:09.464Z,9.60
2023-04-16T23:57:37.441Z,9.70
